createdAt,value
2023-04-30T00:07:08.596Z,101674.72
2023-04-30T00:23:26.649Z,101679.53
2023-04-30T00:31:32.645Z,101692.28
2023-04-30T00:34:03.739Z,101691.00
2023-04-30T00:39:21.112Z,101694.13
2023-04-30T00:52:55.481Z,101701.44
2023-04-30T00:55:24.357Z,101706.16
2023-04-30T01:06:15.090Z,101710.34
2023-04-30T01:08:44.534Z,101712.28
2023-04-30T01:14:13.387Z,101713.69
2023-04-30T01:16:49.940Z,101713.25
2023-04-30T01:19:36.176Z,101718.19
2023-04-30T01:22:05.766Z,101727.75
2023-04-30T01:24:50.111Z,101722.03
2023-04-30T01:27:31.487Z,101738.94
2023-04-30T01:32:50.305Z,101723.44
2023-04-30T01:44:07.456Z,101737.47
2023-04-30T01:46:36.843Z,101727.88
2023-04-30T01:49:21.049Z,101735.41
2023-04-30T02:03:14.012Z,101745.19
2023-04-30T02:19:31.340Z,101749.72
2023-04-30T02:27:33.492Z,101748.25
2023-04-30T02:38:21.190Z,101752.31
2023-04-30T02:51:52.596Z,101760.88
2023-04-30T02:57:07.043Z,101767.50
2023-04-30T03:02:23.480Z,101765.97
2023-04-30T03:07:40.371Z,101763.03
2023-04-30T03:10:09.544Z,101764.06
2023-04-30T03:12:37.526Z,101764.75
2023-04-30T03:15:06.377Z,101756.66
2023-04-30T03:17:34.234Z,101764.31
2023-04-30T03:20:02.451Z,101768.41
2023-04-30T03:28:03.412Z,101764.31
2023-04-30T03:41:34.908Z,101769.72
2023-04-30T03:44:03.048Z,101771.47
2023-04-30T04:00:21.178Z,101799.28
2023-04-30T04:02:53.439Z,101804.66
2023-04-30T04:16:26.809Z,101810.09
2023-04-30T04:21:40.850Z,101808.56
2023-04-30T04:24:15.231Z,101817.09
2023-04-30T04:29:30.270Z,101813.13
2023-04-30T04:34:45.900Z,101827.34
2023-04-30T04:37:13.788Z,101826.19
2023-04-30T04:42:28.149Z,101826.09
2023-04-30T04:44:57.486Z,101826.38
2023-04-30T04:50:12.290Z,101828.16
2023-04-30T04:52:40.199Z,101823.84
2023-04-30T04:55:08.961Z,101831.59
2023-04-30T05:03:11.581Z,101834.16
2023-04-30T05:05:39.604Z,101847.16
2023-04-30T05:10:53.846Z,101834.34
2023-04-30T05:16:09.098Z,101854.75
2023-04-30T05:18:37.052Z,101845.66
2023-04-30T05:21:05.501Z,101849.94
2023-04-30T05:23:33.501Z,101852.69
2023-04-30T05:28:48.121Z,101854.22
2023-04-30T05:31:18.995Z,101850.72
2023-04-30T05:39:20.257Z,101854.47
2023-04-30T05:47:20.672Z,101853.97
2023-04-30T05:55:19.798Z,101861.00
2023-04-30T06:00:33.395Z,101864.47
2023-04-30T06:03:02.782Z,101865.72
2023-04-30T06:05:30.796Z,101866.13
2023-04-30T06:19:05.579Z,101873.81
2023-04-30T06:21:33.766Z,101870.03
2023-04-30T06:24:01.793Z,101870.97
2023-04-30T06:29:20.162Z,101880.72
2023-04-30T06:45:40.904Z,101871.28
2023-04-30T07:01:57.980Z,101875.59
2023-04-30T07:12:44.047Z,101884.72
2023-04-30T07:15:12.420Z,101883.16
2023-04-30T07:20:27.283Z,101887.25
2023-04-30T07:25:41.668Z,101887.28
2023-04-30T07:28:09.626Z,101889.16
2023-04-30T07:36:09.227Z,101888.47
2023-04-30T07:38:38.423Z,101885.00
2023-04-30T07:46:37.606Z,101890.78
2023-04-30T07:49:05.612Z,101897.13
2023-04-30T07:51:34.133Z,101884.94
2023-04-30T07:54:03.993Z,101886.75
2023-04-30T07:56:32.533Z,101881.13
2023-04-30T07:59:00.352Z,101889.53
2023-04-30T08:04:13.768Z,101883.41
2023-04-30T08:12:14.115Z,101900.56
2023-04-30T08:20:13.277Z,101900.03
2023-04-30T08:22:41.539Z,101900.50
2023-04-30T08:25:12.007Z,101896.50
2023-04-30T08:30:26.009Z,101895.25
2023-04-30T08:49:33.391Z,101883.91
2023-04-30T08:52:02.400Z,101878.69
2023-04-30T08:57:20.075Z,101876.84
2023-04-30T08:59:48.189Z,101869.50
2023-04-30T09:02:16.190Z,101871.19
2023-04-30T09:04:44.328Z,101869.41
2023-04-30T09:07:14.611Z,101867.44
2023-04-30T09:09:42.542Z,101861.38
2023-04-30T09:12:17.972Z,101857.16
2023-04-30T09:15:02.115Z,101865.84
2023-04-30T09:17:30.602Z,101870.91
2023-04-30T09:20:08.343Z,101867.22
2023-04-30T09:22:37.710Z,101876.56
2023-04-30T09:25:06.274Z,101870.19
2023-04-30T09:27:34.424Z,101874.34
2023-04-30T09:30:04.668Z,101865.34
2023-04-30T09:32:32.997Z,101862.88
2023-04-30T09:35:00.906Z,101865.59
2023-04-30T09:37:37.613Z,101860.06
2023-04-30T09:40:06.499Z,101863.13
2023-04-30T09:42:34.932Z,101860.44
2023-04-30T09:45:06.659Z,101850.94
2023-04-30T09:47:35.956Z,101848.22
2023-04-30T09:50:04.345Z,101846.84
2023-04-30T09:52:32.412Z,101836.59
2023-04-30T09:55:00.645Z,101841.63
2023-04-30T09:57:32.430Z,101833.41
2023-04-30T10:00:01.920Z,101833.66
2023-04-30T10:02:39.134Z,101835.34
2023-04-30T10:05:08.037Z,101837.72
2023-04-30T10:07:40.095Z,101842.66
2023-04-30T10:10:10.550Z,101826.50
2023-04-30T10:12:44.431Z,101831.16
2023-04-30T10:15:18.951Z,101823.22
2023-04-30T10:17:55.682Z,101834.34
2023-04-30T10:20:25.942Z,101825.38
2023-04-30T10:22:54.670Z,101830.78
2023-04-30T10:25:23.046Z,101839.53
2023-04-30T10:27:51.468Z,101834.25
2023-04-30T10:30:19.770Z,101836.13
2023-04-30T10:32:58.486Z,101822.97
2023-04-30T10:35:29.843Z,101826.66
2023-04-30T10:38:05.638Z,101823.00
2023-04-30T10:40:38.396Z,101821.97
2023-04-30T10:43:06.529Z,101814.41
2023-04-30T10:45:39.835Z,101807.25
2023-04-30T10:48:09.593Z,101808.00
2023-04-30T10:50:44.351Z,101795.13
2023-04-30T10:53:17.130Z,101793.38
2023-04-30T10:55:50.264Z,101783.78
2023-04-30T10:58:26.034Z,101784.84
2023-04-30T11:01:03.103Z,101791.78
2023-04-30T11:03:33.816Z,101785.13
2023-04-30T11:06:03.936Z,101782.00
2023-04-30T11:08:37.163Z,101790.72
2023-04-30T11:11:06.006Z,101784.38
2023-04-30T11:13:42.206Z,101775.56
2023-04-30T11:16:11.028Z,101776.56
2023-04-30T11:18:45.758Z,101777.97
2023-04-30T11:21:14.123Z,101769.97
2023-04-30T11:23:45.254Z,101784.31
2023-04-30T11:26:24.761Z,101775.03
2023-04-30T11:28:55.060Z,101772.31
2023-04-30T11:31:25.275Z,101768.06
2023-04-30T11:33:58.527Z,101766.13
2023-04-30T11:36:31.098Z,101764.94
2023-04-30T11:39:04.878Z,101761.22
2023-04-30T11:41:35.277Z,101748.34
2023-04-30T11:44:07.541Z,101758.63
2023-04-30T11:46:35.704Z,101751.97
2023-04-30T11:49:05.165Z,101746.94
2023-04-30T11:51:33.191Z,101748.41
2023-04-30T11:54:01.234Z,101743.94
2023-04-30T11:56:29.200Z,101739.81
2023-04-30T11:58:57.355Z,101740.59
2023-04-30T12:01:29.115Z,101746.22
2023-04-30T12:03:58.077Z,101731.34
2023-04-30T12:06:29.923Z,101743.41
2023-04-30T12:08:58.976Z,101731.25
2023-04-30T12:11:28.287Z,101735.91
2023-04-30T12:13:59.077Z,101724.31
2023-04-30T12:16:27.027Z,101724.88
2023-04-30T12:18:55.467Z,101735.22
2023-04-30T12:21:23.975Z,101726.47
2023-04-30T12:23:53.841Z,101733.22
2023-04-30T12:26:21.936Z,101720.25
2023-04-30T12:28:50.514Z,101715.72
2023-04-30T12:31:19.092Z,101726.72
2023-04-30T12:33:55.339Z,101726.63
2023-04-30T12:36:23.525Z,101720.00
2023-04-30T12:39:02.951Z,101728.44
2023-04-30T12:41:33.824Z,101723.38
2023-04-30T12:44:22.309Z,101720.56
2023-04-30T12:46:51.387Z,101729.09
2023-04-30T12:49:27.730Z,101724.19
2023-04-30T12:52:03.111Z,101711.31
2023-04-30T12:54:33.729Z,101708.03
2023-04-30T12:57:03.725Z,101705.63
2023-04-30T12:59:32.499Z,101692.38
2023-04-30T13:02:11.734Z,101712.03
2023-04-30T13:04:40.341Z,101706.31
2023-04-30T13:07:08.323Z,101707.09
2023-04-30T13:09:39.199Z,101702.91
2023-04-30T13:12:07.501Z,101701.88
2023-04-30T13:14:35.848Z,101687.72
2023-04-30T13:17:05.940Z,101685.88
2023-04-30T13:19:34.618Z,101681.28
2023-04-30T13:22:03.104Z,101682.97
2023-04-30T13:24:31.588Z,101661.34
2023-04-30T13:27:02.782Z,101670.78
2023-04-30T13:29:30.843Z,101668.91
2023-04-30T13:31:59.283Z,101670.72
2023-04-30T13:34:27.247Z,101668.66
2023-04-30T13:36:55.253Z,101673.00
2023-04-30T13:39:23.269Z,101663.97
2023-04-30T13:41:51.132Z,101652.66
2023-04-30T13:44:20.693Z,101655.44
2023-04-30T13:46:48.714Z,101646.53
2023-04-30T13:49:16.663Z,101644.78
2023-04-30T13:51:44.581Z,101637.13
2023-04-30T13:54:12.533Z,101636.50
2023-04-30T13:56:40.500Z,101640.84
2023-04-30T13:59:08.350Z,101639.78
2023-04-30T14:01:37.790Z,101633.47
2023-04-30T14:04:06.123Z,101636.53
2023-04-30T14:06:34.117Z,101624.81
2023-04-30T14:09:02.372Z,101637.97
2023-04-30T14:11:30.359Z,101620.81
2023-04-30T14:13:58.536Z,101631.16
2023-04-30T14:16:26.623Z,101614.75
2023-04-30T14:18:55.869Z,101614.84
2023-04-30T14:21:23.759Z,101616.97
2023-04-30T14:23:52.196Z,101615.75
2023-04-30T14:26:20.095Z,101611.78
2023-04-30T14:28:48.003Z,101604.53
2023-04-30T14:31:15.867Z,101595.25
2023-04-30T14:33:43.776Z,101587.00
2023-04-30T14:36:13.185Z,101578.31
2023-04-30T14:38:41.346Z,101576.69
2023-04-30T14:41:09.134Z,101577.13
2023-04-30T14:43:37.001Z,101577.38
2023-04-30T14:46:05.390Z,101573.19
2023-04-30T14:48:33.535Z,101573.63
2023-04-30T14:51:01.942Z,101587.97
2023-04-30T14:53:31.232Z,101579.22
2023-04-30T14:55:59.054Z,101573.75
2023-04-30T14:58:26.888Z,101574.22
2023-04-30T15:00:55.056Z,101554.00
2023-04-30T15:03:23.047Z,101549.94
2023-04-30T15:05:51.757Z,101550.41
2023-04-30T15:08:19.687Z,101540.34
2023-04-30T15:10:49.098Z,101546.22
2023-04-30T15:13:17.071Z,101531.22
2023-04-30T15:15:47.134Z,101540.34
2023-04-30T15:18:15.648Z,101538.81
2023-04-30T15:20:43.835Z,101541.63
2023-04-30T15:23:12.687Z,101538.75
2023-04-30T15:25:40.923Z,101539.75
2023-04-30T15:28:45.288Z,101534.59
2023-04-30T15:31:16.609Z,101532.25
2023-04-30T15:33:44.885Z,101533.00
2023-04-30T15:36:12.931Z,101533.91
2023-04-30T15:38:40.774Z,101539.13
2023-04-30T15:41:08.631Z,101535.94
2023-04-30T15:43:38.005Z,101533.59
2023-04-30T15:46:06.108Z,101520.78
2023-04-30T15:48:34.146Z,101524.47
2023-04-30T15:51:02.292Z,101525.38
2023-04-30T15:53:30.221Z,101532.97
2023-04-30T15:55:58.485Z,101528.38
2023-04-30T15:58:26.360Z,101525.63
2023-04-30T16:00:55.629Z,101524.91
2023-04-30T16:03:23.749Z,101520.03
2023-04-30T16:05:51.969Z,101519.38
2023-04-30T16:08:20.011Z,101521.50
2023-04-30T16:10:48.235Z,101519.22
2023-04-30T16:13:17.681Z,101518.16
2023-04-30T16:15:45.683Z,101511.34
2023-04-30T16:18:15.038Z,101520.31
2023-04-30T16:20:43.140Z,101511.47
2023-04-30T16:23:11.330Z,101505.47
2023-04-30T16:25:39.522Z,101493.00
2023-04-30T16:28:07.705Z,101510.38
2023-04-30T16:30:35.815Z,101513.56
2023-04-30T16:33:04.275Z,101511.72
2023-04-30T16:35:33.775Z,101501.88
2023-04-30T16:38:02.567Z,101505.50
2023-04-30T16:40:30.918Z,101511.59
2023-04-30T16:43:00.793Z,101501.88
2023-04-30T16:45:30.282Z,101493.78
2023-04-30T16:47:58.673Z,101503.94
2023-04-30T16:50:27.173Z,101503.72
2023-04-30T16:52:56.669Z,101500.34
2023-04-30T16:55:25.044Z,101500.16
2023-04-30T16:57:53.942Z,101504.50
2023-04-30T17:00:22.068Z,101506.44
2023-04-30T17:02:50.239Z,101500.19
2023-04-30T17:05:18.132Z,101492.53
2023-04-30T17:07:46.118Z,101499.56
2023-04-30T17:10:17.296Z,101491.03
2023-04-30T17:12:45.371Z,101480.00
2023-04-30T17:15:13.323Z,101490.59
2023-04-30T17:17:41.673Z,101487.69
2023-04-30T17:20:10.581Z,101489.19
2023-04-30T17:22:38.664Z,101492.28
2023-04-30T17:25:07.145Z,101496.34
2023-04-30T17:27:37.645Z,101502.91
2023-04-30T17:30:06.445Z,101507.19
2023-04-30T17:32:34.362Z,101493.72
2023-04-30T17:35:03.217Z,101512.22
2023-04-30T17:37:31.410Z,101507.75
2023-04-30T17:39:59.576Z,101508.72
2023-04-30T17:42:27.991Z,101502.44
2023-04-30T17:44:57.691Z,101502.38
2023-04-30T17:47:25.814Z,101507.63
2023-04-30T17:49:55.239Z,101512.22
2023-04-30T17:52:23.431Z,101508.22
2023-04-30T17:54:51.992Z,101499.28
2023-04-30T17:57:27.654Z,101493.88
2023-04-30T17:59:57.404Z,101500.06
2023-04-30T18:02:25.967Z,101496.94
2023-04-30T18:04:54.192Z,101497.31
2023-04-30T18:07:22.081Z,101494.63
2023-04-30T18:09:50.719Z,101499.75
2023-04-30T18:12:19.064Z,101498.03
2023-04-30T18:14:47.006Z,101501.50
2023-04-30T18:17:16.658Z,101501.47
2023-04-30T18:19:48.524Z,101492.72
2023-04-30T18:22:16.552Z,101490.66
2023-04-30T18:24:44.536Z,101493.25
2023-04-30T18:27:12.667Z,101488.03
2023-04-30T18:29:41.836Z,101500.97
2023-04-30T18:32:09.856Z,101493.41
2023-04-30T18:34:39.275Z,101495.25
2023-04-30T18:37:07.105Z,101493.88
2023-04-30T18:39:35.049Z,101494.75
2023-04-30T18:42:04.327Z,101503.81
2023-04-30T18:44:35.046Z,101505.69
2023-04-30T18:47:04.546Z,101492.66
2023-04-30T18:49:32.675Z,101494.31
2023-04-30T18:52:07.368Z,101494.13
2023-04-30T18:54:35.578Z,101496.78
2023-04-30T18:57:03.753Z,101495.25
2023-04-30T18:59:31.775Z,101497.25
2023-04-30T19:02:00.180Z,101494.38
2023-04-30T19:04:31.785Z,101504.94
2023-04-30T19:07:01.159Z,101506.31
2023-04-30T19:09:29.082Z,101505.78
2023-04-30T19:11:57.462Z,101501.56
2023-04-30T19:14:25.510Z,101496.88
2023-04-30T19:16:53.661Z,101489.75
2023-04-30T19:19:22.597Z,101499.94
2023-04-30T19:21:50.991Z,101501.00
2023-04-30T19:24:25.111Z,101507.19
2023-04-30T19:26:53.339Z,101503.09
2023-04-30T19:29:21.373Z,101500.44
2023-04-30T19:31:49.604Z,101505.19
2023-04-30T19:34:17.900Z,101506.78
2023-04-30T19:36:45.925Z,101506.25
2023-04-30T19:39:15.689Z,101501.66
2023-04-30T19:41:45.705Z,101510.03
2023-04-30T19:44:14.333Z,101504.88
2023-04-30T19:46:43.292Z,101509.16
2023-04-30T19:49:14.276Z,101501.94
2023-04-30T19:51:42.719Z,101505.59
2023-04-30T19:54:14.196Z,101498.06
2023-04-30T19:56:42.867Z,101506.72
2023-04-30T19:59:13.084Z,101495.25
2023-04-30T20:01:45.003Z,101500.06
2023-04-30T20:04:13.281Z,101500.63
2023-04-30T20:06:41.833Z,101502.41
2023-04-30T20:09:10.906Z,101502.31
2023-04-30T20:11:39.398Z,101494.03
2023-04-30T20:14:08.994Z,101496.28
2023-04-30T20:16:39.132Z,101489.53
2023-04-30T20:19:07.899Z,101493.41
2023-04-30T20:21:38.566Z,101485.19
2023-04-30T20:24:08.337Z,101486.19
2023-04-30T20:26:37.737Z,101479.16
2023-04-30T20:29:06.366Z,101482.84
2023-04-30T20:31:35.496Z,101484.25
2023-04-30T20:34:07.669Z,101482.75
2023-04-30T20:36:40.869Z,101481.34
2023-04-30T20:39:09.877Z,101483.66
2023-04-30T20:41:42.198Z,101484.53
2023-04-30T20:44:27.341Z,101481.78
2023-04-30T20:46:58.060Z,101476.56
2023-04-30T20:49:34.325Z,101472.69
2023-04-30T20:52:06.134Z,101471.31
2023-04-30T20:54:34.864Z,101475.69
2023-04-30T20:57:03.813Z,101480.66
2023-04-30T20:59:32.258Z,101483.66
2023-04-30T21:02:00.771Z,101473.31
2023-04-30T21:04:31.072Z,101471.63
2023-04-30T21:06:59.330Z,101462.06
2023-04-30T21:09:27.618Z,101468.47
2023-04-30T21:12:00.123Z,101471.03
2023-04-30T21:14:28.759Z,101464.06
2023-04-30T21:16:57.798Z,101468.66
2023-04-30T21:19:26.225Z,101469.72
2023-04-30T21:21:57.697Z,101466.53
2023-04-30T21:24:26.483Z,101466.16
2023-04-30T21:26:54.839Z,101460.00
2023-04-30T21:29:24.302Z,101461.88
2023-04-30T21:31:52.734Z,101458.81
2023-04-30T21:34:21.422Z,101456.78
2023-04-30T21:36:50.236Z,101456.22
2023-04-30T21:39:22.098Z,101458.81
2023-04-30T21:41:50.878Z,101457.75
2023-04-30T21:44:19.785Z,101464.16
2023-04-30T21:46:48.370Z,101450.47
2023-04-30T21:49:18.755Z,101453.09
2023-04-30T21:51:47.179Z,101451.44
2023-04-30T21:54:19.381Z,101449.03
2023-04-30T21:56:49.219Z,101449.13
2023-04-30T21:59:17.824Z,101438.78
2023-04-30T22:01:49.646Z,101437.81
2023-04-30T22:04:17.971Z,101439.50
2023-04-30T22:06:46.468Z,101442.81
2023-04-30T22:09:15.095Z,101441.50
2023-04-30T22:11:43.514Z,101444.69
2023-04-30T22:14:13.313Z,101443.22
2023-04-30T22:16:41.751Z,101445.88
2023-04-30T22:19:10.135Z,101441.75
2023-04-30T22:21:39.362Z,101436.00
2023-04-30T22:24:07.594Z,101434.84
2023-04-30T22:26:35.713Z,101441.25
2023-04-30T22:29:03.662Z,101439.38
2023-04-30T22:31:33.136Z,101430.38
2023-04-30T22:34:01.338Z,101433.56
2023-04-30T22:36:29.533Z,101432.31
2023-04-30T22:38:57.889Z,101435.84
2023-04-30T22:41:25.972Z,101435.63
2023-04-30T22:43:53.946Z,101432.88
2023-04-30T22:46:22.011Z,101428.47
2023-04-30T22:48:51.512Z,101430.00
2023-04-30T22:51:19.797Z,101432.19
2023-04-30T22:53:47.960Z,101427.13
2023-04-30T22:56:16.386Z,101426.19
2023-04-30T22:58:44.622Z,101419.75
2023-04-30T23:01:13.077Z,101426.22
2023-04-30T23:03:44.063Z,101413.22
2023-04-30T23:06:14.321Z,101411.53
2023-04-30T23:08:42.630Z,101411.25
2023-04-30T23:11:10.833Z,101414.56
2023-04-30T23:13:39.151Z,101418.78
2023-04-30T23:16:10.415Z,101422.03
2023-04-30T23:18:38.897Z,101414.53
2023-04-30T23:21:07.945Z,101415.44
2023-04-30T23:23:37.751Z,101412.31
2023-04-30T23:26:06.045Z,101414.47
2023-04-30T23:28:34.260Z,101398.59
2023-04-30T23:31:02.424Z,101402.34
2023-04-30T23:33:30.784Z,101397.34
2023-04-30T23:35:58.912Z,101400.72
2023-04-30T23:38:34.586Z,101400.03
2023-04-30T23:41:04.385Z,101398.44
2023-04-30T23:43:33.138Z,101404.03
2023-04-30T23:46:04.105Z,101398.09
2023-04-30T23:48:32.685Z,101396.34
2023-04-30T23:51:01.608Z,101389.44
2023-04-30T23:53:30.453Z,101393.88
2023-04-30T23:56:00.577Z,101390.13
2023-04-30T23:58:31.429Z,101385.84
